sensor_id;sensor_type;location;lat;lon;timestamp;P1;durP1;ratioP1;P2;durP2;ratioP2
29730;SDS011;16639;51.488;0.152;2023-07-02T00:00:13;27.35;;;13.02;;
29730;SDS011;16639;51.488;0.152;2023-07-02T00:02:41;36.90;;;15.60;;
29730;SDS011;16639;51.488;0.152;2023-07-02T00:05:08;35.08;;;14.48;;
29730;SDS011;16639;51.488;0.152;2023-07-02T00:07:35;32.33;;;14.52;;
29730;SDS011;16639;51.488;0.152;2023-07-02T00:10:04;38.22;;;14.20;;
29730;SDS011;16639;51.488;0.152;2023-07-02T00:12:32;43.17;;;15.77;;
29730;SDS011;16639;51.488;0.152;2023-07-02T00:15:00;30.95;;;13.93;;
29730;SDS011;16639;51.488;0.152;2023-07-02T00:17:29;33.60;;;13.32;;
29730;SDS011;16639;51.488;0.152;2023-07-02T00:19:57;37.47;;;14.38;;
29730;SDS011;16639;51.488;0.152;2023-07-02T00:22:33;43.50;;;16.42;;
29730;SDS011;16639;51.488;0.152;2023-07-02T00:25:03;31.10;;;13.82;;
29730;SDS011;16639;51.488;0.152;2023-07-02T00:27:31;32.85;;;14.85;;
29730;SDS011;16639;51.488;0.152;2023-07-02T00:29:58;30.60;;;13.98;;
29730;SDS011;16639;51.488;0.152;2023-07-02T00:32:25;29.67;;;14.38;;
29730;SDS011;16639;51.488;0.152;2023-07-02T00:34:53;41.72;;;18.25;;
29730;SDS011;16639;51.488;0.152;2023-07-02T00:37:22;49.28;;;19.23;;
29730;SDS011;16639;51.488;0.152;2023-07-02T00:39:49;32.05;;;17.48;;
29730;SDS011;16639;51.488;0.152;2023-07-02T00:42:17;40.58;;;18.92;;
29730;SDS011;16639;51.488;0.152;2023-07-02T00:44:45;41.97;;;18.52;;
29730;SDS011;16639;51.488;0.152;2023-07-02T00:47:13;55.08;;;22.30;;
29730;SDS011;16639;51.488;0.152;2023-07-02T00:49:40;40.58;;;18.60;;
29730;SDS011;16639;51.488;0.152;2023-07-02T00:52:09;42.22;;;21.63;;
29730;SDS011;16639;51.488;0.152;2023-07-02T00:54:38;51.42;;;21.45;;
29730;SDS011;16639;51.488;0.152;2023-07-02T00:57:07;50.85;;;22.00;;
29730;SDS011;16639;51.488;0.152;2023-07-02T00:59:34;47.92;;;22.75;;
29730;SDS011;16639;51.488;0.152;2023-07-02T01:02:05;51.35;;;20.15;;
29730;SDS011;16639;51.488;0.152;2023-07-02T01:04:34;41.95;;;19.00;;
29730;SDS011;16639;51.488;0.152;2023-07-02T01:07:01;47.25;;;18.58;;
29730;SDS011;16639;51.488;0.152;2023-07-02T01:09:31;42.00;;;16.85;;
29730;SDS011;16639;51.488;0.152;2023-07-02T01:12:05;41.63;;;16.15;;
29730;SDS011;16639;51.488;0.152;2023-07-02T01:14:40;37.67;;;16.17;;
29730;SDS011;16639;51.488;0.152;2023-07-02T01:17:09;33.83;;;15.38;;
29730;SDS011;16639;51.488;0.152;2023-07-02T01:19:48;39.08;;;15.98;;
29730;SDS011;16639;51.488;0.152;2023-07-02T01:22:23;42.22;;;15.82;;
29730;SDS011;16639;51.488;0.152;2023-07-02T01:24:52;33.15;;;13.85;;
29730;SDS011;16639;51.488;0.152;2023-07-02T01:27:21;41.47;;;15.70;;
29730;SDS011;16639;51.488;0.152;2023-07-02T01:29:52;39.33;;;15.45;;
29730;SDS011;16639;51.488;0.152;2023-07-02T01:32:20;54.88;;;15.40;;
29730;SDS011;16639;51.488;0.152;2023-07-02T01:34:49;41.47;;;16.52;;
29730;SDS011;16639;51.488;0.152;2023-07-02T01:37:20;38.45;;;15.23;;
29730;SDS011;16639;51.488;0.152;2023-07-02T01:39:48;33.20;;;15.75;;
29730;SDS011;16639;51.488;0.152;2023-07-02T01:42:17;36.05;;;15.85;;
29730;SDS011;16639;51.488;0.152;2023-07-02T01:44:47;33.10;;;16.60;;
29730;SDS011;16639;51.488;0.152;2023-07-02T01:47:16;39.97;;;15.32;;
29730;SDS011;16639;51.488;0.152;2023-07-02T01:49:44;43.45;;;16.77;;
29730;SDS011;16639;51.488;0.152;2023-07-02T01:52:12;36.30;;;15.90;;
29730;SDS011;16639;51.488;0.152;2023-07-02T01:54:39;35.58;;;15.77;;
29730;SDS011;16639;51.488;0.152;2023-07-02T01:57:07;42.67;;;16.95;;
29730;SDS011;16639;51.488;0.152;2023-07-02T01:59:34;43.67;;;15.70;;
29730;SDS011;16639;51.488;0.152;2023-07-02T02:02:02;35.97;;;14.38;;
29730;SDS011;16639;51.488;0.152;2023-07-02T02:04:30;36.08;;;14.48;;
29730;SDS011;16639;51.488;0.152;2023-07-02T02:06:57;43.55;;;17.48;;
29730;SDS011;16639;51.488;0.152;2023-07-02T02:09:25;44.17;;;17.10;;
29730;SDS011;16639;51.488;0.152;2023-07-02T02:11:55;33.28;;;15.57;;
29730;SDS011;16639;51.488;0.152;2023-07-02T02:14:22;42.05;;;16.95;;
29730;SDS011;16639;51.488;0.152;2023-07-02T02:16:50;42.60;;;16.58;;
29730;SDS011;16639;51.488;0.152;2023-07-02T02:19:18;49.55;;;16.55;;
29730;SDS011;16639;51.488;0.152;2023-07-02T02:21:45;45.30;;;17.85;;
29730;SDS011;16639;51.488;0.152;2023-07-02T02:24:12;36.08;;;15.75;;
29730;SDS011;16639;51.488;0.152;2023-07-02T02:26:40;32.33;;;14.90;;
29730;SDS011;16639;51.488;0.152;2023-07-02T02:29:08;41.33;;;16.67;;
29730;SDS011;16639;51.488;0.152;2023-07-02T02:31:35;41.10;;;16.42;;
29730;SDS011;16639;51.488;0.152;2023-07-02T02:34:03;35.30;;;15.02;;
29730;SDS011;16639;51.488;0.152;2023-07-02T02:36:30;43.38;;;15.40;;
29730;SDS011;16639;51.488;0.152;2023-07-02T02:38:59;43.40;;;15.48;;
29730;SDS011;16639;51.488;0.152;2023-07-02T02:41:26;29.45;;;16.30;;
29730;SDS011;16639;51.488;0.152;2023-07-02T02:43:54;39.78;;;16.58;;
29730;SDS011;16639;51.488;0.152;2023-07-02T02:46:21;39.30;;;16.58;;
29730;SDS011;16639;51.488;0.152;2023-07-02T02:48:50;36.00;;;15.63;;
29730;SDS011;16639;51.488;0.152;2023-07-02T02:51:18;37.17;;;15.77;;
29730;SDS011;16639;51.488;0.152;2023-07-02T02:53:46;41.97;;;16.20;;
29730;SDS011;16639;51.488;0.152;2023-07-02T02:56:13;44.63;;;15.73;;
29730;SDS011;16639;51.488;0.152;2023-07-02T02:58:41;34.78;;;14.88;;
29730;SDS011;16639;51.488;0.152;2023-07-02T03:01:08;39.35;;;15.45;;
29730;SDS011;16639;51.488;0.152;2023-07-02T03:03:38;45.53;;;15.98;;
29730;SDS011;16639;51.488;0.152;2023-07-02T03:06:07;34.92;;;13.05;;
29730;SDS011;16639;51.488;0.152;2023-07-02T03:08:35;35.75;;;14.10;;
29730;SDS011;16639;51.488;0.152;2023-07-02T03:11:02;34.75;;;14.75;;
29730;SDS011;16639;51.488;0.152;2023-07-02T03:13:30;35.58;;;14.75;;
29730;SDS011;16639;51.488;0.152;2023-07-02T03:15:57;34.28;;;14.25;;
29730;SDS011;16639;51.488;0.152;2023-07-02T03:18:25;40.08;;;16.10;;
29730;SDS011;16639;51.488;0.152;2023-07-02T03:20:52;40.50;;;15.35;;
29730;SDS011;16639;51.488;0.152;2023-07-02T03:23:20;36.75;;;14.40;;
29730;SDS011;16639;51.488;0.152;2023-07-02T03:25:47;32.47;;;13.50;;
29730;SDS011;16639;51.488;0.152;2023-07-02T03:28:15;32.85;;;14.65;;
29730;SDS011;16639;51.488;0.152;2023-07-02T03:30:42;34.97;;;14.32;;
29730;SDS011;16639;51.488;0.152;2023-07-02T03:33:10;39.72;;;14.88;;
29730;SDS011;16639;51.488;0.152;2023-07-02T03:35:38;36.80;;;13.85;;
29730;SDS011;16639;51.488;0.152;2023-07-02T03:38:05;34.95;;;15.52;;
29730;SDS011;16639;51.488;0.152;2023-07-02T03:40:33;35.25;;;14.13;;
29730;SDS011;16639;51.488;0.152;2023-07-02T03:43:00;41.20;;;14.95;;
29730;SDS011;16639;51.488;0.152;2023-07-02T03:45:27;36.53;;;14.43;;
29730;SDS011;16639;51.488;0.152;2023-07-02T03:47:56;41.17;;;16.83;;
29730;SDS011;16639;51.488;0.152;2023-07-02T03:50:23;34.92;;;14.05;;
29730;SDS011;16639;51.488;0.152;2023-07-02T03:52:51;36.75;;;15.65;;
29730;SDS011;16639;51.488;0.152;2023-07-02T03:55:18;41.15;;;14.60;;
29730;SDS011;16639;51.488;0.152;2023-07-02T03:57:46;40.17;;;15.18;;
29730;SDS011;16639;51.488;0.152;2023-07-02T04:00:14;45.30;;;15.57;;
29730;SDS011;16639;51.488;0.152;2023-07-02T04:02:41;41.90;;;15.15;;
29730;SDS011;16639;51.488;0.152;2023-07-02T04:05:09;38.72;;;15.10;;
29730;SDS011;16639;51.488;0.152;2023-07-02T04:07:36;43.88;;;15.95;;
29730;SDS011;16639;51.488;0.152;2023-07-02T04:10:04;45.55;;;15.60;;
29730;SDS011;16639;51.488;0.152;2023-07-02T04:12:32;46.30;;;16.83;;
29730;SDS011;16639;51.488;0.152;2023-07-02T04:14:59;37.30;;;14.23;;
29730;SDS011;16639;51.488;0.152;2023-07-02T04:17:27;38.22;;;16.33;;
29730;SDS011;16639;51.488;0.152;2023-07-02T04:19:56;42.40;;;16.63;;
29730;SDS011;16639;51.488;0.152;2023-07-02T04:22:26;45.45;;;15.25;;
29730;SDS011;16639;51.488;0.152;2023-07-02T04:24:54;40.05;;;15.00;;
29730;SDS011;16639;51.488;0.152;2023-07-02T04:27:28;39.15;;;17.90;;
29730;SDS011;16639;51.488;0.152;2023-07-02T04:30:15;38.90;;;16.05;;
29730;SDS011;16639;51.488;0.152;2023-07-02T04:32:43;49.25;;;16.13;;
29730;SDS011;16639;51.488;0.152;2023-07-02T04:35:10;34.10;;;15.82;;
29730;SDS011;16639;51.488;0.152;2023-07-02T04:37:38;46.92;;;17.38;;
29730;SDS011;16639;51.488;0.152;2023-07-02T04:40:08;35.08;;;15.07;;
29730;SDS011;16639;51.488;0.152;2023-07-02T04:42:39;33.38;;;16.45;;
29730;SDS011;16639;51.488;0.152;2023-07-02T04:45:08;46.53;;;16.08;;
29730;SDS011;16639;51.488;0.152;2023-07-02T04:47:35;53.72;;;15.77;;
29730;SDS011;16639;51.488;0.152;2023-07-02T04:50:04;36.20;;;16.67;;
29730;SDS011;16639;51.488;0.152;2023-07-02T04:52:35;38.25;;;15.18;;
29730;SDS011;16639;51.488;0.152;2023-07-02T04:55:02;45.30;;;17.13;;
29730;SDS011;16639;51.488;0.152;2023-07-02T04:57:31;36.70;;;14.60;;
29730;SDS011;16639;51.488;0.152;2023-07-02T04:59:58;40.67;;;15.93;;
29730;SDS011;16639;51.488;0.152;2023-07-02T05:02:26;41.28;;;15.48;;
29730;SDS011;16639;51.488;0.152;2023-07-02T05:04:53;49.17;;;16.55;;
29730;SDS011;16639;51.488;0.152;2023-07-02T05:07:21;36.38;;;15.35;;
29730;SDS011;16639;51.488;0.152;2023-07-02T05:09:48;41.67;;;15.48;;
29730;SDS011;16639;51.488;0.152;2023-07-02T05:12:18;41.88;;;14.85;;
29730;SDS011;16639;51.488;0.152;2023-07-02T05:14:46;37.92;;;13.00;;
29730;SDS011;16639;51.488;0.152;2023-07-02T05:17:15;33.63;;;12.55;;
29730;SDS011;16639;51.488;0.152;2023-07-02T05:19:45;35.85;;;14.13;;
29730;SDS011;16639;51.488;0.152;2023-07-02T05:22:12;35.55;;;13.18;;
29730;SDS011;16639;51.488;0.152;2023-07-02T05:24:39;39.85;;;14.43;;
29730;SDS011;16639;51.488;0.152;2023-07-02T05:27:10;31.48;;;13.93;;
29730;SDS011;16639;51.488;0.152;2023-07-02T05:29:37;44.17;;;14.35;;
29730;SDS011;16639;51.488;0.152;2023-07-02T05:32:05;35.88;;;13.05;;
29730;SDS011;16639;51.488;0.152;2023-07-02T05:34:34;33.47;;;12.68;;
29730;SDS011;16639;51.488;0.152;2023-07-02T05:37:02;29.00;;;12.27;;
29730;SDS011;16639;51.488;0.152;2023-07-02T05:39:29;43.22;;;11.82;;
29730;SDS011;16639;51.488;0.152;2023-07-02T05:41:57;38.83;;;12.73;;
29730;SDS011;16639;51.488;0.152;2023-07-02T05:44:24;35.85;;;13.50;;
29730;SDS011;16639;51.488;0.152;2023-07-02T05:46:52;40.70;;;13.25;;
29730;SDS011;16639;51.488;0.152;2023-07-02T05:49:19;40.33;;;12.60;;
29730;SDS011;16639;51.488;0.152;2023-07-02T05:51:46;35.75;;;12.73;;
29730;SDS011;16639;51.488;0.152;2023-07-02T05:54:14;25.58;;;11.95;;
29730;SDS011;16639;51.488;0.152;2023-07-02T05:56:41;39.10;;;14.00;;
29730;SDS011;16639;51.488;0.152;2023-07-02T05:59:09;35.08;;;13.02;;
29730;SDS011;16639;51.488;0.152;2023-07-02T06:01:36;35.40;;;12.93;;
29730;SDS011;16639;51.488;0.152;2023-07-02T06:04:04;43.50;;;13.20;;
29730;SDS011;16639;51.488;0.152;2023-07-02T06:06:31;30.15;;;12.40;;
29730;SDS011;16639;51.488;0.152;2023-07-02T06:08:59;31.92;;;13.38;;
29730;SDS011;16639;51.488;0.152;2023-07-02T06:11:26;24.95;;;11.63;;
29730;SDS011;16639;51.488;0.152;2023-07-02T06:13:54;28.58;;;11.13;;
29730;SDS011;16639;51.488;0.152;2023-07-02T06:16:22;25.20;;;11.40;;
29730;SDS011;16639;51.488;0.152;2023-07-02T06:18:49;24.17;;;10.27;;
29730;SDS011;16639;51.488;0.152;2023-07-02T06:21:17;22.63;;;9.45;;
29730;SDS011;16639;51.488;0.152;2023-07-02T06:23:46;27.13;;;9.18;;
29730;SDS011;16639;51.488;0.152;2023-07-02T06:26:13;27.38;;;9.60;;
29730;SDS011;16639;51.488;0.152;2023-07-02T06:28:41;24.45;;;9.13;;
29730;SDS011;16639;51.488;0.152;2023-07-02T06:31:08;23.63;;;8.52;;
29730;SDS011;16639;51.488;0.152;2023-07-02T06:33:38;28.00;;;8.88;;
29730;SDS011;16639;51.488;0.152;2023-07-02T06:36:07;24.17;;;8.45;;
29730;SDS011;16639;51.488;0.152;2023-07-02T06:38:38;22.15;;;9.07;;
29730;SDS011;16639;51.488;0.152;2023-07-02T06:41:06;25.73;;;8.55;;
29730;SDS011;16639;51.488;0.152;2023-07-02T06:46:19;24.90;;;8.30;;
29730;SDS011;16639;51.488;0.152;2023-07-02T06:48:47;21.00;;;8.80;;
29730;SDS011;16639;51.488;0.152;2023-07-02T06:51:15;18.70;;;8.27;;
29730;SDS011;16639;51.488;0.152;2023-07-02T06:53:44;28.13;;;9.38;;
29730;SDS011;16639;51.488;0.152;2023-07-02T06:56:12;22.88;;;8.88;;
29730;SDS011;16639;51.488;0.152;2023-07-02T06:58:41;21.70;;;8.65;;
29730;SDS011;16639;51.488;0.152;2023-07-02T07:01:10;27.35;;;9.40;;
29730;SDS011;16639;51.488;0.152;2023-07-02T07:03:38;24.50;;;8.25;;
29730;SDS011;16639;51.488;0.152;2023-07-02T07:06:06;18.48;;;8.63;;
29730;SDS011;16639;51.488;0.152;2023-07-02T07:08:36;23.17;;;8.43;;
29730;SDS011;16639;51.488;0.152;2023-07-02T07:11:05;26.95;;;8.73;;
29730;SDS011;16639;51.488;0.152;2023-07-02T07:13:33;17.50;;;7.75;;
29730;SDS011;16639;51.488;0.152;2023-07-02T07:16:00;20.10;;;8.15;;
29730;SDS011;16639;51.488;0.152;2023-07-02T07:18:27;24.63;;;8.18;;
29730;SDS011;16639;51.488;0.152;2023-07-02T07:20:58;19.55;;;8.63;;
29730;SDS011;16639;51.488;0.152;2023-07-02T07:23:26;18.83;;;8.80;;
29730;SDS011;16639;51.488;0.152;2023-07-02T07:25:54;22.50;;;8.45;;
29730;SDS011;16639;51.488;0.152;2023-07-02T07:28:21;25.42;;;7.68;;
29730;SDS011;16639;51.488;0.152;2023-07-02T07:30:49;21.77;;;8.32;;
29730;SDS011;16639;51.488;0.152;2023-07-02T07:33:17;21.65;;;8.60;;
29730;SDS011;16639;51.488;0.152;2023-07-02T07:35:44;27.15;;;8.35;;
29730;SDS011;16639;51.488;0.152;2023-07-02T07:38:15;19.88;;;8.48;;
29730;SDS011;16639;51.488;0.152;2023-07-02T07:40:43;22.38;;;8.30;;
29730;SDS011;16639;51.488;0.152;2023-07-02T07:43:11;24.35;;;8.80;;
29730;SDS011;16639;51.488;0.152;2023-07-02T07:45:38;22.33;;;8.38;;
29730;SDS011;16639;51.488;0.152;2023-07-02T07:48:06;19.45;;;7.72;;
29730;SDS011;16639;51.488;0.152;2023-07-02T07:50:33;20.45;;;8.20;;
29730;SDS011;16639;51.488;0.152;2023-07-02T07:53:01;23.33;;;8.75;;
29730;SDS011;16639;51.488;0.152;2023-07-02T07:55:29;23.02;;;8.05;;
29730;SDS011;16639;51.488;0.152;2023-07-02T07:57:56;26.33;;;8.18;;
29730;SDS011;16639;51.488;0.152;2023-07-02T08:00:24;26.55;;;9.05;;
29730;SDS011;16639;51.488;0.152;2023-07-02T08:02:52;22.50;;;8.68;;
29730;SDS011;16639;51.488;0.152;2023-07-02T08:05:22;22.77;;;8.98;;
29730;SDS011;16639;51.488;0.152;2023-07-02T08:07:50;21.80;;;9.05;;
29730;SDS011;16639;51.488;0.152;2023-07-02T08:10:17;14.77;;;7.35;;
29730;SDS011;16639;51.488;0.152;2023-07-02T08:12:46;17.10;;;8.10;;
29730;SDS011;16639;51.488;0.152;2023-07-02T08:15:14;18.20;;;7.40;;
29730;SDS011;16639;51.488;0.152;2023-07-02T08:17:41;18.08;;;7.50;;
29730;SDS011;16639;51.488;0.152;2023-07-02T08:20:09;22.95;;;8.50;;
29730;SDS011;16639;51.488;0.152;2023-07-02T08:22:37;15.07;;;7.45;;
29730;SDS011;16639;51.488;0.152;2023-07-02T08:25:06;26.38;;;8.15;;
29730;SDS011;16639;51.488;0.152;2023-07-02T08:27:34;26.88;;;9.20;;
29730;SDS011;16639;51.488;0.152;2023-07-02T08:30:02;21.35;;;7.43;;
29730;SDS011;16639;51.488;0.152;2023-07-02T08:32:29;13.70;;;6.63;;
29730;SDS011;16639;51.488;0.152;2023-07-02T08:34:59;18.25;;;6.82;;
29730;SDS011;16639;51.488;0.152;2023-07-02T08:37:27;16.35;;;6.97;;
29730;SDS011;16639;51.488;0.152;2023-07-02T08:39:54;18.60;;;7.10;;
29730;SDS011;16639;51.488;0.152;2023-07-02T08:42:22;13.32;;;7.15;;
29730;SDS011;16639;51.488;0.152;2023-07-02T08:44:53;15.48;;;6.28;;
29730;SDS011;16639;51.488;0.152;2023-07-02T08:47:21;18.33;;;6.55;;
29730;SDS011;16639;51.488;0.152;2023-07-02T08:49:49;14.45;;;6.30;;
29730;SDS011;16639;51.488;0.152;2023-07-02T08:52:16;15.93;;;6.50;;
29730;SDS011;16639;51.488;0.152;2023-07-02T08:54:44;16.00;;;6.38;;
29730;SDS011;16639;51.488;0.152;2023-07-02T08:57:11;16.17;;;6.50;;
29730;SDS011;16639;51.488;0.152;2023-07-02T08:59:39;17.13;;;6.93;;
29730;SDS011;16639;51.488;0.152;2023-07-02T09:02:07;17.35;;;5.95;;
29730;SDS011;16639;51.488;0.152;2023-07-02T09:04:34;18.45;;;5.93;;
29730;SDS011;16639;51.488;0.152;2023-07-02T09:07:05;15.77;;;5.97;;
29730;SDS011;16639;51.488;0.152;2023-07-02T09:09:46;12.60;;;5.25;;
29730;SDS011;16639;51.488;0.152;2023-07-02T09:12:27;12.77;;;6.28;;
29730;SDS011;16639;51.488;0.152;2023-07-02T09:17:31;20.08;;;6.18;;
29730;SDS011;16639;51.488;0.152;2023-07-02T09:20:00;16.40;;;5.95;;
29730;SDS011;16639;51.488;0.152;2023-07-02T09:22:31;12.70;;;5.68;;
29730;SDS011;16639;51.488;0.152;2023-07-02T09:24:59;16.13;;;5.65;;
29730;SDS011;16639;51.488;0.152;2023-07-02T09:30:07;15.82;;;5.82;;
29730;SDS011;16639;51.488;0.152;2023-07-02T09:32:36;12.18;;;5.00;;
29730;SDS011;16639;51.488;0.152;2023-07-02T09:35:03;15.98;;;6.18;;
29730;SDS011;16639;51.488;0.152;2023-07-02T09:37:31;15.80;;;6.00;;
29730;SDS011;16639;51.488;0.152;2023-07-02T09:39:59;12.77;;;5.65;;
29730;SDS011;16639;51.488;0.152;2023-07-02T09:42:29;14.88;;;4.85;;
29730;SDS011;16639;51.488;0.152;2023-07-02T09:44:57;12.18;;;4.80;;
29730;SDS011;16639;51.488;0.152;2023-07-02T09:47:25;11.07;;;5.47;;
29730;SDS011;16639;51.488;0.152;2023-07-02T09:50:02;13.98;;;5.28;;
29730;SDS011;16639;51.488;0.152;2023-07-02T09:52:33;16.48;;;5.80;;
29730;SDS011;16639;51.488;0.152;2023-07-02T09:55:01;14.50;;;6.25;;
29730;SDS011;16639;51.488;0.152;2023-07-02T09:57:31;16.10;;;5.75;;
29730;SDS011;16639;51.488;0.152;2023-07-02T09:59:59;13.40;;;5.32;;
29730;SDS011;16639;51.488;0.152;2023-07-02T10:02:28;12.90;;;5.00;;
29730;SDS011;16639;51.488;0.152;2023-07-02T10:04:56;13.43;;;5.40;;
29730;SDS011;16639;51.488;0.152;2023-07-02T10:07:27;19.52;;;6.22;;
29730;SDS011;16639;51.488;0.152;2023-07-02T10:09:56;17.63;;;5.65;;
29730;SDS011;16639;51.488;0.152;2023-07-02T10:12:27;17.05;;;5.78;;
29730;SDS011;16639;51.488;0.152;2023-07-02T10:14:57;15.68;;;5.90;;
29730;SDS011;16639;51.488;0.152;2023-07-02T10:17:27;18.05;;;5.72;;
29730;SDS011;16639;51.488;0.152;2023-07-02T10:20:04;18.02;;;6.55;;
29730;SDS011;16639;51.488;0.152;2023-07-02T10:22:43;17.42;;;5.28;;
29730;SDS011;16639;51.488;0.152;2023-07-02T10:25:11;14.30;;;5.38;;
29730;SDS011;16639;51.488;0.152;2023-07-02T10:27:50;14.48;;;5.25;;
29730;SDS011;16639;51.488;0.152;2023-07-02T10:30:18;14.30;;;6.40;;
29730;SDS011;16639;51.488;0.152;2023-07-02T10:32:45;11.98;;;5.30;;
29730;SDS011;16639;51.488;0.152;2023-07-02T10:35:13;17.20;;;4.93;;
29730;SDS011;16639;51.488;0.152;2023-07-02T10:37:41;10.48;;;4.80;;
29730;SDS011;16639;51.488;0.152;2023-07-02T10:40:09;10.07;;;4.60;;
29730;SDS011;16639;51.488;0.152;2023-07-02T10:42:44;13.68;;;5.40;;
29730;SDS011;16639;51.488;0.152;2023-07-02T10:45:13;12.23;;;5.00;;
29730;SDS011;16639;51.488;0.152;2023-07-02T10:47:40;11.15;;;5.22;;
29730;SDS011;16639;51.488;0.152;2023-07-02T10:50:17;14.32;;;6.18;;
29730;SDS011;16639;51.488;0.152;2023-07-02T10:52:49;14.05;;;5.43;;
29730;SDS011;16639;51.488;0.152;2023-07-02T10:55:18;11.80;;;5.82;;
29730;SDS011;16639;51.488;0.152;2023-07-02T10:58:06;13.33;;;5.13;;
29730;SDS011;16639;51.488;0.152;2023-07-02T11:03:21;11.80;;;5.30;;
29730;SDS011;16639;51.488;0.152;2023-07-02T11:05:50;16.65;;;5.80;;
29730;SDS011;16639;51.488;0.152;2023-07-02T11:08:19;17.40;;;5.50;;
29730;SDS011;16639;51.488;0.152;2023-07-02T11:11:03;20.30;;;5.18;;
29730;SDS011;16639;51.488;0.152;2023-07-02T11:13:31;27.30;;;5.57;;
29730;SDS011;16639;51.488;0.152;2023-07-02T11:15:59;14.50;;;6.22;;
29730;SDS011;16639;51.488;0.152;2023-07-02T11:18:29;14.70;;;5.75;;
29730;SDS011;16639;51.488;0.152;2023-07-02T11:20:58;14.00;;;5.38;;
29730;SDS011;16639;51.488;0.152;2023-07-02T11:23:36;17.50;;;5.28;;
29730;SDS011;16639;51.488;0.152;2023-07-02T11:26:04;11.68;;;5.05;;
29730;SDS011;16639;51.488;0.152;2023-07-02T11:28:31;14.32;;;5.90;;
29730;SDS011;16639;51.488;0.152;2023-07-02T11:31:04;14.55;;;5.32;;
29730;SDS011;16639;51.488;0.152;2023-07-02T11:36:06;15.95;;;4.60;;
29730;SDS011;16639;51.488;0.152;2023-07-02T11:38:35;19.35;;;6.20;;
29730;SDS011;16639;51.488;0.152;2023-07-02T11:41:03;18.90;;;9.07;;
29730;SDS011;16639;51.488;0.152;2023-07-02T11:43:31;15.18;;;5.82;;
29730;SDS011;16639;51.488;0.152;2023-07-02T11:45:59;17.08;;;5.13;;
29730;SDS011;16639;51.488;0.152;2023-07-02T11:48:27;14.15;;;5.30;;
29730;SDS011;16639;51.488;0.152;2023-07-02T11:50:54;12.80;;;4.70;;
29730;SDS011;16639;51.488;0.152;2023-07-02T11:53:21;14.90;;;5.82;;
29730;SDS011;16639;51.488;0.152;2023-07-02T11:55:49;11.77;;;5.18;;
29730;SDS011;16639;51.488;0.152;2023-07-02T11:58:17;11.73;;;5.00;;
29730;SDS011;16639;51.488;0.152;2023-07-02T12:00:44;19.75;;;5.32;;
29730;SDS011;16639;51.488;0.152;2023-07-02T12:03:11;14.02;;;4.82;;
29730;SDS011;16639;51.488;0.152;2023-07-02T12:05:39;14.82;;;5.55;;
29730;SDS011;16639;51.488;0.152;2023-07-02T12:08:07;14.23;;;5.50;;
29730;SDS011;16639;51.488;0.152;2023-07-02T12:10:35;17.55;;;5.90;;
29730;SDS011;16639;51.488;0.152;2023-07-02T12:13:04;13.35;;;4.53;;
29730;SDS011;16639;51.488;0.152;2023-07-02T12:15:32;12.82;;;5.45;;
29730;SDS011;16639;51.488;0.152;2023-07-02T12:17:59;14.45;;;5.05;;
29730;SDS011;16639;51.488;0.152;2023-07-02T12:20:27;12.52;;;4.95;;
29730;SDS011;16639;51.488;0.152;2023-07-02T12:22:54;18.85;;;5.72;;
29730;SDS011;16639;51.488;0.152;2023-07-02T12:25:25;8.02;;;3.65;;
29730;SDS011;16639;51.488;0.152;2023-07-02T12:27:53;8.38;;;3.80;;
29730;SDS011;16639;51.488;0.152;2023-07-02T12:30:20;14.98;;;4.78;;
29730;SDS011;16639;51.488;0.152;2023-07-02T12:32:48;12.98;;;4.15;;
29730;SDS011;16639;51.488;0.152;2023-07-02T12:35:15;13.30;;;4.53;;
29730;SDS011;16639;51.488;0.152;2023-07-02T12:37:46;14.05;;;4.75;;
29730;SDS011;16639;51.488;0.152;2023-07-02T12:40:15;13.32;;;5.43;;
29730;SDS011;16639;51.488;0.152;2023-07-02T12:42:43;9.93;;;4.10;;
29730;SDS011;16639;51.488;0.152;2023-07-02T12:45:12;12.95;;;4.65;;
29730;SDS011;16639;51.488;0.152;2023-07-02T12:47:41;9.27;;;3.55;;
29730;SDS011;16639;51.488;0.152;2023-07-02T12:50:09;6.05;;;2.88;;
29730;SDS011;16639;51.488;0.152;2023-07-02T12:52:37;20.75;;;3.97;;
29730;SDS011;16639;51.488;0.152;2023-07-02T12:55:05;12.60;;;3.72;;
29730;SDS011;16639;51.488;0.152;2023-07-02T12:57:33;16.10;;;4.03;;
29730;SDS011;16639;51.488;0.152;2023-07-02T13:00:01;10.13;;;3.22;;
29730;SDS011;16639;51.488;0.152;2023-07-02T13:02:29;11.00;;;3.63;;
29730;SDS011;16639;51.488;0.152;2023-07-02T13:04:56;9.60;;;3.28;;
29730;SDS011;16639;51.488;0.152;2023-07-02T13:07:24;6.65;;;3.65;;
29730;SDS011;16639;51.488;0.152;2023-07-02T13:09:52;11.23;;;3.17;;
29730;SDS011;16639;51.488;0.152;2023-07-02T13:12:19;13.05;;;4.18;;
29730;SDS011;16639;51.488;0.152;2023-07-02T13:14:47;11.38;;;4.03;;
29730;SDS011;16639;51.488;0.152;2023-07-02T13:17:14;10.30;;;3.70;;
29730;SDS011;16639;51.488;0.152;2023-07-02T13:19:42;11.55;;;3.80;;
29730;SDS011;16639;51.488;0.152;2023-07-02T13:22:09;12.98;;;3.95;;
29730;SDS011;16639;51.488;0.152;2023-07-02T13:24:37;10.23;;;3.38;;
29730;SDS011;16639;51.488;0.152;2023-07-02T13:27:09;7.47;;;3.60;;
29730;SDS011;16639;51.488;0.152;2023-07-02T13:29:39;15.63;;;3.80;;
29730;SDS011;16639;51.488;0.152;2023-07-02T13:32:07;12.43;;;4.07;;
29730;SDS011;16639;51.488;0.152;2023-07-02T13:34:34;11.32;;;4.10;;
29730;SDS011;16639;51.488;0.152;2023-07-02T13:37:02;11.50;;;3.60;;
29730;SDS011;16639;51.488;0.152;2023-07-02T13:39:30;18.02;;;4.50;;
29730;SDS011;16639;51.488;0.152;2023-07-02T13:41:57;17.42;;;3.97;;
29730;SDS011;16639;51.488;0.152;2023-07-02T13:44:25;13.68;;;3.72;;
29730;SDS011;16639;51.488;0.152;2023-07-02T13:46:52;12.52;;;4.15;;
29730;SDS011;16639;51.488;0.152;2023-07-02T13:49:20;20.48;;;4.85;;
29730;SDS011;16639;51.488;0.152;2023-07-02T13:51:48;13.90;;;4.18;;
29730;SDS011;16639;51.488;0.152;2023-07-02T13:54:17;12.10;;;3.97;;
29730;SDS011;16639;51.488;0.152;2023-07-02T13:56:46;14.50;;;3.95;;
29730;SDS011;16639;51.488;0.152;2023-07-02T13:59:16;9.10;;;3.45;;
29730;SDS011;16639;51.488;0.152;2023-07-02T14:01:44;15.25;;;4.35;;
29730;SDS011;16639;51.488;0.152;2023-07-02T14:04:13;12.63;;;3.85;;
29730;SDS011;16639;51.488;0.152;2023-07-02T14:06:41;9.68;;;4.13;;
29730;SDS011;16639;51.488;0.152;2023-07-02T14:09:09;16.20;;;4.30;;
29730;SDS011;16639;51.488;0.152;2023-07-02T14:11:38;11.75;;;3.80;;
29730;SDS011;16639;51.488;0.152;2023-07-02T14:14:07;12.80;;;4.30;;
29730;SDS011;16639;51.488;0.152;2023-07-02T14:16:35;9.30;;;4.00;;
29730;SDS011;16639;51.488;0.152;2023-07-02T14:19:02;15.32;;;4.40;;
29730;SDS011;16639;51.488;0.152;2023-07-02T14:21:30;20.45;;;4.32;;
29730;SDS011;16639;51.488;0.152;2023-07-02T14:23:58;11.32;;;5.13;;
29730;SDS011;16639;51.488;0.152;2023-07-02T14:26:26;13.68;;;3.60;;
29730;SDS011;16639;51.488;0.152;2023-07-02T14:28:54;12.43;;;4.85;;
29730;SDS011;16639;51.488;0.152;2023-07-02T14:31:22;16.48;;;5.40;;
29730;SDS011;16639;51.488;0.152;2023-07-02T14:33:50;22.88;;;5.18;;
29730;SDS011;16639;51.488;0.152;2023-07-02T14:36:17;18.80;;;5.20;;
29730;SDS011;16639;51.488;0.152;2023-07-02T14:38:45;13.00;;;5.20;;
29730;SDS011;16639;51.488;0.152;2023-07-02T14:41:12;12.73;;;3.72;;
29730;SDS011;16639;51.488;0.152;2023-07-02T14:43:39;15.57;;;4.80;;
29730;SDS011;16639;51.488;0.152;2023-07-02T14:46:07;18.35;;;5.00;;
29730;SDS011;16639;51.488;0.152;2023-07-02T14:48:34;15.82;;;4.63;;